Time;durP1;ratioP1;P1;durP2;ratioP2;P2;SDS_P1;SDS_P2;PMS_P1;PMS_P2;Temp;Humidity;BMP_temperature;BMP_pressure;BME280_temperature;BME280_humidity;BME280_pressure;Samples;Min_cycle;Max_cycle;Signal;HPM_P1;HPM_P2
2023/05/13 00:01:40;;;;;;;4.10;2.73;;;14.10;99.90;;;;;;5070861;28;20645;-61
2023/05/13 00:04:08;;;;;;;3.30;2.97;;;14.00;99.90;;;;;;5070903;28;20482;-61
2023/05/13 00:06:35;;;;;;;7.03;2.70;;;14.00;99.90;;;;;;5071941;28;20848;-61
2023/05/13 00:09:04;;;;;;;7.00;2.67;;;13.90;99.90;;;;;;5069056;28;20595;-61
2023/05/13 00:11:32;;;;;;;4.43;2.43;;;13.90;99.90;;;;;;5073329;28;20471;-61
2023/05/13 00:13:58;;;;;;;3.30;3.00;;;13.90;99.90;;;;;;5070397;28;21044;-61
2023/05/13 00:16:27;;;;;;;6.90;3.27;;;13.80;99.90;;;;;;5073250;28;20478;-61
2023/05/13 00:18:54;;;;;;;2.50;2.30;;;13.90;99.90;;;;;;5060412;28;20751;-61
2023/05/13 00:21:21;;;;;;;3.00;2.70;;;13.80;99.90;;;;;;5074058;28;20822;-61
2023/05/13 00:23:48;;;;;;;6.17;2.90;;;13.70;99.90;;;;;;5071692;28;22076;-61
2023/05/13 00:26:17;;;;;;;3.10;2.80;;;13.70;99.90;;;;;;5072397;28;20615;-61
2023/05/13 00:28:44;;;;;;;2.57;2.37;;;13.70;99.90;;;;;;5072451;28;20478;-61
2023/05/13 00:31:11;;;;;;;3.20;2.77;;;13.60;99.90;;;;;;5075904;28;20489;-61
2023/05/13 00:33:37;;;;;;;3.30;3.00;;;13.60;99.90;;;;;;5075875;28;20475;-61
2023/05/13 00:36:05;;;;;;;3.50;3.10;;;13.60;99.90;;;;;;5076573;28;20771;-61
2023/05/13 00:38:33;;;;;;;3.17;2.87;;;13.60;99.90;;;;;;5073421;28;20478;-61
2023/05/13 00:40:59;;;;;;;2.83;2.60;;;13.60;99.90;;;;;;5077791;27;20484;-61
2023/05/13 00:43:28;;;;;;;2.80;2.60;;;13.60;99.90;;;;;;5091227;27;20482;-62
2023/05/13 00:45:55;;;;;;;2.80;2.30;;;13.60;99.90;;;;;;5075730;28;21283;-61
2023/05/13 00:48:22;;;;;;;4.83;3.53;;;13.50;99.90;;;;;;5077886;28;20473;-60
2023/05/13 00:50:49;;;;;;;2.93;2.63;;;13.60;99.90;;;;;;5077270;28;20510;-60
2023/05/13 00:53:17;;;;;;;4.73;2.40;;;13.50;99.90;;;;;;5077252;27;20579;-61
2023/05/13 00:55:45;;;;;;;16.83;4.00;;;13.50;99.90;;;;;;5093820;27;20483;-61
2023/05/13 00:58:12;;;;;;;6.00;3.00;;;13.50;99.90;;;;;;5076076;28;20630;-60
2023/05/13 01:00:47;;;;;;;4.20;3.23;;;13.40;99.90;;;;;;5075927;28;20510;-61
2023/05/13 01:03:21;;;;;;;4.43;3.27;;;13.40;99.90;;;;;;5076978;28;20478;-61
2023/05/13 01:05:57;;;;;;;4.63;3.30;;;13.40;99.90;;;;;;5074754;28;20489;-61
2023/05/13 01:08:33;;;;;;;3.67;3.20;;;13.30;99.90;;;;;;5074859;28;20481;-61
2023/05/13 01:11:04;;;;;;;3.40;3.10;;;13.20;99.90;;;;;;5061991;28;20580;-61
2023/05/13 01:13:35;;;;;;;5.47;3.90;;;13.20;99.90;;;;;;5073480;28;20474;-62
2023/05/13 01:16:11;;;;;;;4.33;3.93;;;13.20;99.90;;;;;;5064165;28;20478;-61
2023/05/13 01:18:43;;;;;;;3.17;2.87;;;13.20;99.90;;;;;;5066002;28;20469;-61
2023/05/13 01:21:11;;;;;;;4.77;2.73;;;13.20;99.90;;;;;;5075567;28;20482;-61
2023/05/13 01:23:40;;;;;;;5.30;3.67;;;13.20;99.90;;;;;;5075216;28;20473;-61
2023/05/13 01:26:07;;;;;;;3.60;3.03;;;13.10;99.90;;;;;;5078080;27;20842;-61
2023/05/13 01:28:34;;;;;;;3.50;2.80;;;;;;;;;;5089640;27;20478;-61
2023/05/13 01:31:01;;;;;;;5.90;4.97;;;13.00;99.90;;;;;;5073222;28;20786;-61
2023/05/13 01:33:29;;;;;;;3.63;2.83;;;13.00;99.90;;;;;;5073198;28;20469;-61
2023/05/13 01:35:56;;;;;;;4.67;3.60;;;12.90;99.90;;;;;;5071765;28;21017;-61
2023/05/13 01:38:24;;;;;;;7.60;2.87;;;12.90;99.90;;;;;;5074688;28;20482;-61
2023/05/13 01:40:53;;;;;;;8.23;3.87;;;12.90;99.90;;;;;;5072695;28;20478;-61
2023/05/13 01:43:21;;;;;;;3.90;3.30;;;12.90;99.90;;;;;;5075252;28;20477;-61
2023/05/13 01:45:48;;;;;;;4.10;3.80;;;12.90;99.90;;;;;;5073978;28;20479;-61
2023/05/13 01:48:14;;;;;;;5.23;3.20;;;13.00;99.90;;;;;;5071974;28;21115;-61
2023/05/13 01:50:41;;;;;;;4.10;3.67;;;13.00;99.90;;;;;;5073630;28;20475;-61
2023/05/13 01:53:08;;;;;;;4.63;3.60;;;13.00;99.90;;;;;;5069660;28;20474;-61
2023/05/13 01:55:35;;;;;;;5.57;3.70;;;12.90;99.90;;;;;;5071224;28;20860;-62
2023/05/13 01:58:04;;;;;;;4.30;3.80;;;12.90;99.90;;;;;;5073517;28;20478;-61
2023/05/13 02:00:31;;;;;;;6.60;4.00;;;12.90;99.90;;;;;;5069792;28;20485;-60
2023/05/13 02:02:57;;;;;;;4.47;3.83;;;12.90;99.90;;;;;;5074964;28;20817;-60
2023/05/13 02:05:24;;;;;;;6.93;4.13;;;12.80;99.90;;;;;;5062187;27;20488;-61
2023/05/13 02:07:51;;;;;;;4.13;3.80;;;12.80;99.90;;;;;;5102092;27;20482;-60
2023/05/13 02:10:18;;;;;;;6.70;3.63;;;12.70;99.90;;;;;;5072889;28;20474;-60
2023/05/13 02:12:44;;;;;;;5.17;3.97;;;12.70;99.90;;;;;;5071557;28;20481;-60
2023/05/13 02:15:13;;;;;;;18.63;7.87;;;12.60;99.90;;;;;;5074127;28;20506;-60
2023/05/13 02:17:40;;;;;;;33.20;18.27;;;12.60;99.90;;;;;;5061289;28;20471;-60
2023/05/13 02:20:08;;;;;;;60.67;26.87;;;12.60;99.90;;;;;;5072056;28;21144;-60
2023/05/13 02:22:34;;;;;;;28.50;13.60;;;12.50;99.90;;;;;;5074204;27;20493;-60
2023/05/13 02:25:02;;;;;;;21.03;12.03;;;12.40;99.90;;;;;;5076497;28;20872;-60
2023/05/13 02:27:29;;;;;;;15.97;8.00;;;12.40;99.90;;;;;;5080170;27;20469;-61
2023/05/13 02:29:56;;;;;;;8.10;5.67;;;12.40;99.90;;;;;;5085904;27;20854;-61
2023/05/13 02:32:24;;;;;;;9.00;6.50;;;12.30;99.90;;;;;;5076905;28;20478;-61
2023/05/13 02:34:51;;;;;;;10.47;5.93;;;12.30;99.90;;;;;;5074340;28;20891;-61
2023/05/13 02:37:18;;;;;;;8.30;6.10;;;12.30;99.90;;;;;;5075278;28;20486;-61
2023/05/13 02:39:45;;;;;;;8.73;6.07;;;12.20;99.90;;;;;;5090971;28;20466;-61
2023/05/13 02:42:12;;;;;;;8.97;6.00;;;12.30;99.90;;;;;;5076282;28;20466;-61
2023/05/13 02:44:39;;;;;;;6.80;4.90;;;12.20;99.90;;;;;;5093192;28;20493;-61
2023/05/13 02:47:06;;;;;;;11.73;5.20;;;12.10;99.90;;;;;;5078648;28;20490;-61
2023/05/13 02:49:34;;;;;;;8.20;5.37;;;12.00;99.90;;;;;;5084888;28;21013;-61
2023/05/13 02:52:01;;;;;;;7.43;4.30;;;11.90;99.90;;;;;;5088577;28;20482;-61
2023/05/13 02:54:28;;;;;;;11.00;5.00;;;11.90;99.90;;;;;;5086169;28;20474;-61
2023/05/13 02:56:54;;;;;;;6.03;4.77;;;11.80;99.90;;;;;;5082052;28;20666;-60
2023/05/13 02:59:21;;;;;;;16.47;6.27;;;11.70;99.90;;;;;;5076061;28;20467;-61
2023/05/13 03:01:48;;;;;;;7.70;5.43;;;11.70;99.90;;;;;;5081917;28;20482;-61
2023/05/13 03:04:15;;;;;;;8.80;5.20;;;11.70;99.90;;;;;;5086221;28;20508;-61
2023/05/13 03:06:43;;;;;;;7.77;4.63;;;11.70;99.90;;;;;;5089766;28;20863;-61
2023/05/13 03:09:10;;;;;;;6.83;4.87;;;11.60;99.90;;;;;;5095046;27;20513;-60
2023/05/13 03:11:37;;;;;;;6.23;5.20;;;11.60;99.90;;;;;;5084277;28;20474;-60
2023/05/13 03:14:04;;;;;;;4.70;4.23;;;11.60;99.90;;;;;;5091426;28;20495;-61
2023/05/13 03:16:31;;;;;;;4.97;3.90;;;11.60;99.90;;;;;;5079332;28;20486;-60
2023/05/13 03:18:58;;;;;;;7.33;3.80;;;11.50;99.70;;;;;;5072328;28;20959;-60
2023/05/13 03:21:25;;;;;;;5.33;3.87;;;11.50;99.90;;;;;;5077772;28;20490;-60
2023/05/13 03:23:53;;;;;;;6.13;5.50;;;11.40;99.90;;;;;;5080750;28;20482;-60
2023/05/13 03:26:21;;;;;;;4.70;3.80;;;11.40;99.90;;;;;;5099253;28;20512;-60
2023/05/13 03:28:48;;;;;;;7.93;5.00;;;11.30;99.90;;;;;;5084885;28;20522;-60
2023/05/13 03:31:15;;;;;;;5.27;4.60;;;11.30;99.90;;;;;;5090203;28;21002;-60
2023/05/13 03:33:42;;;;;;;5.53;3.70;;;11.20;99.90;;;;;;5097465;28;20605;-60
2023/05/13 03:36:09;;;;;;;4.33;3.77;;;11.10;99.90;;;;;;5089162;28;20488;-60
2023/05/13 03:38:38;;;;;;;5.30;3.60;;;11.10;99.90;;;;;;5079735;28;20524;-60
2023/05/13 03:41:07;;;;;;;4.53;4.13;;;11.00;99.90;;;;;;5086071;28;20512;-60
2023/05/13 03:43:33;;;;;;;4.30;3.07;;;10.90;99.90;;;;;;5081579;28;20473;-60
2023/05/13 03:46:00;;;;;;;6.20;4.13;;;10.90;99.90;;;;;;5074863;28;20773;-60
2023/05/13 03:48:27;;;;;;;8.03;4.63;;;10.90;99.90;;;;;;5081615;28;21217;-60
2023/05/13 03:50:54;;;;;;;5.50;4.70;;;10.90;99.90;;;;;;5076794;28;20486;-60
2023/05/13 03:53:21;;;;;;;5.83;4.90;;;10.90;99.90;;;;;;5076533;28;20475;-60
2023/05/13 03:55:48;;;;;;;5.80;4.33;;;;;;;;;;5089902;28;20469;-60
2023/05/13 03:58:17;;;;;;;9.00;4.10;;;10.70;99.60;;;;;;5078820;28;20513;-60
2023/05/13 04:00:46;;;;;;;5.53;4.83;;;10.70;99.90;;;;;;5085918;28;20485;-60
2023/05/13 04:03:14;;;;;;;8.10;3.80;;;10.70;99.90;;;;;;5072459;28;20478;-60
2023/05/13 04:05:41;;;;;;;6.13;4.10;;;10.60;99.60;;;;;;5075127;28;20478;-60
2023/05/13 04:08:10;;;;;;;4.90;3.80;;;10.60;99.80;;;;;;5093607;28;20473;-60
2023/05/13 04:10:36;;;;;;;8.00;4.60;;;10.50;99.80;;;;;;5095739;28;20534;-60
2023/05/13 04:13:03;;;;;;;5.50;4.00;;;10.40;99.40;;;;;;5086720;28;20481;-60
2023/05/13 04:15:31;;;;;;;5.03;3.90;;;10.40;99.60;;;;;;5093328;28;20482;-60
2023/05/13 04:17:59;;;;;;;4.70;4.10;;;10.20;99.90;;;;;;5080667;27;20485;-60
2023/05/13 04:20:26;;;;;;;8.33;3.87;;;10.20;99.90;;;;;;5112022;27;20710;-60
2023/05/13 04:22:52;;;;;;;4.30;4.00;;;10.20;99.90;;;;;;5092813;28;20806;-60
2023/05/13 04:25:20;;;;;;;5.33;4.53;;;10.20;99.90;;;;;;5079733;28;20486;-60
2023/05/13 04:27:47;;;;;;;21.70;4.63;;;10.20;99.90;;;;;;5081268;28;21030;-60
2023/05/13 04:30:14;;;;;;;4.07;3.53;;;10.30;99.90;;;;;;5100949;28;20487;-60
2023/05/13 04:32:43;;;;;;;4.23;3.83;;;10.30;99.90;;;;;;5082629;28;20466;-60
2023/05/13 04:35:10;;;;;;;4.83;4.33;;;10.40;99.90;;;;;;5080292;28;20691;-60
2023/05/13 04:37:37;;;;;;;5.87;4.60;;;10.40;99.90;;;;;;5090638;28;20750;-60
2023/05/13 04:40:05;;;;;;;8.37;5.80;;;10.40;99.90;;;;;;5082118;28;20781;-60
2023/05/13 04:42:32;;;;;;;7.33;5.47;;;10.40;99.90;;;;;;5097211;27;20744;-60
2023/05/13 04:45:06;;;;;;;5.90;4.77;;;10.40;99.90;;;;;;5089856;27;20573;-60
2023/05/13 04:47:34;;;;;;;5.77;4.57;;;10.50;99.90;;;;;;5119187;27;21010;-60
2023/05/13 04:50:02;;;;;;;5.80;4.77;;;10.40;99.90;;;;;;5104687;27;20951;-60
2023/05/13 04:52:29;;;;;;;5.83;5.23;;;10.40;99.90;;;;;;5074262;28;20541;-60
2023/05/13 04:54:55;;;;;;;5.43;4.90;;;10.50;99.90;;;;;;5084972;28;20486;-60
2023/05/13 04:57:22;;;;;;;3.37;2.97;;;10.40;99.90;;;;;;5078435;28;20490;-60
2023/05/13 04:59:49;;;;;;;6.37;4.30;;;10.40;99.90;;;;;;5072810;27;20857;-60
2023/05/13 05:02:16;;;;;;;5.93;4.83;;;10.40;99.90;;;;;;5096675;27;20874;-60
2023/05/13 05:04:43;;;;;;;5.60;5.10;;;10.50;99.90;;;;;;5093048;27;20484;-60
2023/05/13 05:07:11;;;;;;;18.33;5.23;;;10.60;99.90;;;;;;5090141;27;20478;-60
2023/05/13 05:09:38;;;;;;;6.20;5.20;;;10.60;99.90;;;;;;5078260;28;20557;-60
2023/05/13 05:12:05;;;;;;;6.80;6.07;;;10.70;99.90;;;;;;5097692;27;20469;-60
2023/05/13 05:14:32;;;;;;;10.20;6.50;;;10.70;99.90;;;;;;5082466;28;20470;-60
2023/05/13 05:16:59;;;;;;;7.07;5.10;;;10.80;99.90;;;;;;5062246;28;21083;-60
2023/05/13 05:19:26;;;;;;;8.00;4.80;;;11.00;99.90;;;;;;5078765;28;20471;-60
2023/05/13 05:21:52;;;;;;;8.50;6.33;;;11.20;99.90;;;;;;5082425;28;20473;-60
2023/05/13 05:24:21;;;;;;;10.57;8.40;;;11.40;99.90;;;;;;5089091;27;20481;-60
2023/05/13 05:26:48;;;;;;;13.30;7.73;;;11.40;99.90;;;;;;5082832;27;20488;-60
2023/05/13 05:29:14;;;;;;;10.33;8.50;;;11.50;99.90;;;;;;5082105;28;20481;-60
2023/05/13 05:31:41;;;;;;;9.57;8.27;;;11.70;99.90;;;;;;5084093;28;20846;-60
2023/05/13 05:34:08;;;;;;;12.00;8.87;;;11.80;99.90;;;;;;5085239;28;20858;-60
2023/05/13 05:36:35;;;;;;;10.00;8.43;;;11.90;99.90;;;;;;5079959;28;20485;-60
2023/05/13 05:39:02;;;;;;;12.23;8.10;;;12.20;99.90;;;;;;5096990;28;20876;-60
2023/05/13 05:41:30;;;;;;;13.30;9.37;;;12.20;99.90;;;;;;5099112;28;20477;-60
2023/05/13 05:43:57;;;;;;;11.90;8.67;;;12.40;99.90;;;;;;5089408;27;20489;-60
2023/05/13 05:46:24;;;;;;;15.43;8.10;;;12.60;99.90;;;;;;5080032;28;20479;-60
2023/05/13 05:48:51;;;;;;;11.10;7.50;;;12.70;99.90;;;;;;5077449;28;20482;-60
2023/05/13 05:51:17;;;;;;;13.90;8.30;;;12.80;99.90;;;;;;5077839;28;20478;-60
2023/05/13 05:53:45;;;;;;;10.87;8.50;;;12.80;99.90;;;;;;5077253;28;20479;-60
2023/05/13 05:56:12;;;;;;;9.80;8.57;;;13.00;99.90;;;;;;5091069;27;20948;-60
2023/05/13 05:58:41;;;;;;;12.20;9.27;;;13.10;99.90;;;;;;5085288;28;20482;-60
2023/05/13 06:01:08;;;;;;;11.90;8.77;;;13.30;99.90;;;;;;5077118;28;20475;-60
2023/05/13 06:03:34;;;;;;;10.40;8.13;;;13.40;99.90;;;;;;5077604;28;21014;-61
2023/05/13 06:06:01;;;;;;;11.57;10.37;;;13.50;99.90;;;;;;5080327;28;20490;-61
2023/05/13 06:08:29;;;;;;;11.20;8.97;;;13.50;99.90;;;;;;5076565;28;20474;-61
2023/05/13 06:10:57;;;;;;;9.47;8.57;;;13.70;99.90;;;;;;5089388;27;20492;-61
2023/05/13 06:13:24;;;;;;;8.27;7.27;;;13.90;99.90;;;;;;5077638;28;20474;-61
2023/05/13 06:15:52;;;;;;;9.53;8.13;;;13.90;99.90;;;;;;5078293;28;20482;-60
2023/05/13 06:18:19;;;;;;;8.20;7.20;;;14.10;99.90;;;;;;5089017;28;20478;-60
2023/05/13 06:20:46;;;;;;;10.23;7.80;;;14.20;99.90;;;;;;5080462;28;20556;-60
2023/05/13 06:23:13;;;;;;;11.33;7.67;;;14.20;99.90;;;;;;5095825;28;20478;-60
2023/05/13 06:25:41;;;;;;;7.00;6.37;;;14.30;99.90;;;;;;5098096;27;20484;-60
2023/05/13 06:28:08;;;;;;;9.60;8.30;;;14.50;99.90;;;;;;5073674;28;20531;-60
2023/05/13 06:30:36;;;;;;;7.53;6.93;;;14.60;99.90;;;;;;5090819;28;20470;-61
2023/05/13 06:33:04;;;;;;;13.43;7.20;;;14.80;99.90;;;;;;5073338;28;20899;-61
2023/05/13 06:35:31;;;;;;;8.13;7.43;;;14.90;99.90;;;;;;5074150;28;20477;-61
2023/05/13 06:37:58;;;;;;;10.53;7.37;;;15.10;99.90;;;;;;5090551;28;20478;-61
2023/05/13 06:40:24;;;;;;;7.23;6.10;;;15.30;99.90;;;;;;5076434;28;20932;-61
2023/05/13 06:42:51;;;;;;;10.10;5.97;;;15.60;99.90;;;;;;5076723;28;20473;-61
2023/05/13 06:45:21;;;;;;;7.10;6.40;;;15.80;99.90;;;;;;5084482;27;20851;-61
2023/05/13 06:47:49;;;;;;;7.43;6.73;;;16.10;99.90;;;;;;5107739;27;20481;-61
2023/05/13 06:50:17;;;;;;;9.37;6.50;;;16.40;99.90;;;;;;5089630;27;21001;-61
2023/05/13 06:52:44;;;;;;;7.33;6.63;;;16.60;99.90;;;;;;5080445;28;20477;-61
2023/05/13 06:55:11;;;;;;;8.00;6.30;;;16.90;99.70;;;;;;5082921;28;20474;-61
2023/05/13 06:57:39;;;;;;;8.83;6.40;;;17.10;99.90;;;;;;5078550;28;21025;-61
2023/05/13 07:00:07;;;;;;;8.07;5.80;;;17.30;99.80;;;;;;5087369;27;20493;-61
2023/05/13 07:02:34;;;;;;;6.50;5.90;;;17.40;98.90;;;;;;5104934;27;20485;-61
2023/05/13 07:05:01;;;;;;;7.00;6.17;;;17.60;99.80;;;;;;5082649;28;20897;-61
2023/05/13 07:07:29;;;;;;;9.43;5.50;;;17.70;98.60;;;;;;5073481;28;20978;-61
2023/05/13 07:09:56;;;;;;;8.90;5.43;;;17.60;97.70;;;;;;5080231;28;20482;-62
2023/05/13 07:12:22;;;;;;;11.17;6.63;;;17.70;97.80;;;;;;5094685;28;20484;-62
2023/05/13 07:14:49;;;;;;;9.50;5.60;;;17.70;97.70;;;;;;5088807;28;20470;-61
2023/05/13 07:17:17;;;;;;;10.00;6.53;;;17.70;97.10;;;;;;5075695;28;21280;-61
2023/05/13 07:19:44;;;;;;;7.00;5.63;;;17.80;97.60;;;;;;5080730;28;20705;-62
2023/05/13 07:22:11;;;;;;;6.20;5.10;;;17.90;97.30;;;;;;5095364;28;20489;-61
2023/05/13 07:24:40;;;;;;;6.80;5.33;;;17.90;96.30;;;;;;5085452;28;20567;-62
2023/05/13 07:27:06;;;;;;;6.70;5.77;;;18.00;97.20;;;;;;5088435;28;20492;-61
2023/05/13 07:29:33;;;;;;;6.20;4.73;;;18.20;97.60;;;;;;5075940;28;20451;-62
2023/05/13 07:32:04;;;;;;;6.50;5.90;;;18.40;97.20;;;;;;5084103;28;20506;-61
2023/05/13 07:34:31;;;;;;;6.57;5.27;;;18.60;97.30;;;;;;5095844;28;21053;-61
2023/05/13 07:36:58;;;;;;;5.40;4.90;;;18.80;96.20;;;;;;5095232;28;20473;-61
2023/05/13 07:39:25;;;;;;;8.60;5.30;;;18.90;96.10;;;;;;5077637;28;20457;-62
2023/05/13 07:41:53;;;;;;;8.83;6.07;;;19.20;97.40;;;;;;5080510;28;20478;-62
2023/05/13 07:44:20;;;;;;;4.57;3.90;;;19.40;96.50;;;;;;5094579;28;20554;-61
2023/05/13 07:46:48;;;;;;;6.10;4.40;;;19.40;94.70;;;;;;5092350;28;20495;-62
2023/05/13 07:49:14;;;;;;;4.83;4.33;;;19.40;94.60;;;;;;5086929;27;20469;-61
2023/05/13 07:51:41;;;;;;;3.33;3.03;;;19.30;94.20;;;;;;5095451;27;21309;-61
2023/05/13 07:54:09;;;;;;;4.27;3.80;;;19.20;93.80;;;;;;5092406;28;20470;-62
2023/05/13 07:56:37;;;;;;;4.23;3.83;;;19.20;94.40;;;;;;5076698;28;20457;-61
2023/05/13 07:59:05;;;;;;;4.10;3.70;;;19.30;94.50;;;;;;5079965;28;20482;-61
2023/05/13 08:01:32;;;;;;;4.93;4.20;;;19.50;93.80;;;;;;5084206;28;20473;-62
2023/05/13 08:03:59;;;;;;;4.13;3.67;;;19.60;94.10;;;;;;5082654;28;20490;-61
2023/05/13 08:06:26;;;;;;;3.70;3.40;;;19.70;93.70;;;;;;5083396;28;20505;-61
2023/05/13 08:08:53;;;;;;;4.40;3.97;;;19.80;93.60;;;;;;5094323;28;20474;-61
2023/05/13 08:11:20;;;;;;;6.13;3.83;;;19.90;94.20;;;;;;5095311;28;20477;-62
2023/05/13 08:13:47;;;;;;;4.73;3.97;;;19.90;93.10;;;;;;5085688;28;20778;-62
2023/05/13 08:16:15;;;;;;;5.67;3.60;;;20.00;94.50;;;;;;5092899;28;20478;-62
2023/05/13 08:18:42;;;;;;;4.70;3.40;;;20.00;93.10;;;;;;5091435;28;20576;-62
2023/05/13 08:21:09;;;;;;;5.73;3.80;;;20.10;93.10;;;;;;5082358;28;20478;-62
2023/05/13 08:23:37;;;;;;;4.20;3.90;;;20.30;93.40;;;;;;5083049;28;21005;-63
2023/05/13 08:26:04;;;;;;;4.20;3.80;;;20.20;92.70;;;;;;5094295;28;20467;-62
2023/05/13 08:28:31;;;;;;;6.53;5.73;;;20.30;93.80;;;;;;5089843;28;20470;-62
2023/05/13 08:31:01;;;;;;;4.47;3.57;;;20.50;93.20;;;;;;5091924;28;20497;-62
2023/05/13 08:33:29;;;;;;;4.20;3.80;;;20.50;91.60;;;;;;5085169;28;20479;-62
2023/05/13 08:35:56;;;;;;;4.40;4.00;;;20.70;93.40;;;;;;5066945;28;20531;-62
2023/05/13 08:38:23;;;;;;;4.53;3.17;;;20.70;91.00;;;;;;5057498;28;20476;-63
2023/05/13 08:40:50;;;;;;;4.00;3.53;;;20.80;91.90;;;;;;5083446;27;20445;-62
2023/05/13 08:43:19;;;;;;;3.87;3.57;;;20.60;90.80;;;;;;5092582;28;20536;-63
2023/05/13 08:45:47;;;;;;;4.43;4.00;;;20.60;92.30;;;;;;5077678;28;20982;-63
2023/05/13 08:48:15;;;;;;;6.63;4.10;;;20.60;91.40;;;;;;5076665;28;21022;-63
2023/05/13 08:50:44;;;;;;;5.60;4.27;;;20.90;91.90;;;;;;5076766;28;21038;-62
2023/05/13 08:53:12;;;;;;;3.77;3.47;;;21.00;91.70;;;;;;5082625;28;20468;-62
2023/05/13 08:55:40;;;;;;;4.33;3.20;;;21.00;91.20;;;;;;5091666;28;20473;-62
2023/05/13 08:58:06;;;;;;;6.47;4.10;;;20.80;88.80;;;;;;5070512;28;20457;-62
2023/05/13 09:00:34;;;;;;;4.60;3.33;;;20.90;90.70;;;;;;5066600;28;20474;-63
2023/05/13 09:03:01;;;;;;;5.50;4.03;;;21.20;91.30;;;;;;5080114;28;20504;-63
2023/05/13 09:05:30;;;;;;;4.40;4.00;;;21.30;88.80;;;;;;5078105;28;20444;-63
2023/05/13 09:07:58;;;;;;;4.27;3.70;;;21.30;90.30;;;;;;5075607;28;20458;-63
2023/05/13 09:10:25;;;;;;;3.57;3.27;;;21.20;90.20;;;;;;5078448;28;20449;-63
2023/05/13 09:12:53;;;;;;;4.87;3.90;;;21.30;90.20;;;;;;5078377;28;20460;-62
2023/05/13 09:15:21;;;;;;;5.40;3.73;;;21.40;91.40;;;;;;5091544;27;20489;-63
2023/05/13 09:17:51;;;;;;;4.93;3.40;;;21.40;89.30;;;;;;5081371;28;20478;-62
2023/05/13 09:20:18;;;;;;;4.10;3.70;;;21.50;90.30;;;;;;5099151;28;20545;-63
2023/05/13 09:22:47;;;;;;;4.40;4.00;;;21.70;90.90;;;;;;5098546;27;20472;-63
2023/05/13 09:25:16;;;;;;;4.73;4.30;;;21.90;90.20;;;;;;5080408;27;20458;-63
2023/05/13 09:27:47;;;;;;;4.33;3.70;;;22.10;90.00;;;;;;5078976;28;20839;-62
2023/05/13 09:30:14;;;;;;;6.10;3.57;;;22.00;86.90;;;;;;5089214;28;20444;-63
2023/05/13 09:32:42;;;;;;;6.03;3.10;;;22.10;88.60;;;;;;5094665;28;20515;-63
2023/05/13 09:35:15;;;;;;;3.50;3.20;;;22.00;86.30;;;;;;5082187;28;20448;-62
2023/05/13 09:37:44;;;;;;;7.03;3.70;;;22.10;87.70;;;;;;5081295;28;20466;-63
2023/05/13 09:40:12;;;;;;;8.43;3.60;;;22.10;89.10;;;;;;5086380;28;20440;-62
2023/05/13 09:42:42;;;;;;;4.43;3.20;;;21.90;86.50;;;;;;5084711;28;20862;-63
2023/05/13 09:45:11;;;;;;;4.17;3.77;;;22.00;86.90;;;;;;5093322;27;20539;-62
2023/05/13 09:47:38;;;;;;;4.10;3.70;;;22.00;85.10;;;;;;5100280;27;20474;-63
2023/05/13 09:50:06;;;;;;;7.60;3.00;;;22.00;86.20;;;;;;5089246;27;20555;-63
2023/05/13 09:52:34;;;;;;;3.70;3.40;;;22.10;85.60;;;;;;5079504;28;20517;-62
2023/05/13 09:55:03;;;;;;;6.10;3.20;;;22.10;85.20;;;;;;5075164;28;20445;-63
2023/05/13 09:57:30;;;;;;;7.63;3.60;;;22.20;84.20;;;;;;5086845;28;20460;-63
2023/05/13 09:59:59;;;;;;;6.13;3.37;;;22.20;86.10;;;;;;5079273;28;20465;-63
2023/05/13 10:02:27;;;;;;;4.30;3.90;;;22.20;83.90;;;;;;5083950;28;20868;-63
2023/05/13 10:04:55;;;;;;;5.07;4.10;;;22.40;87.20;;;;;;5077881;28;20982;-63
2023/05/13 10:07:24;;;;;;;5.10;3.37;;;22.50;82.80;;;;;;5078940;28;20486;-63
2023/05/13 10:09:54;;;;;;;6.00;3.97;;;22.50;83.90;;;;;;5090641;28;21120;-63
2023/05/13 10:12:24;;;;;;;3.57;3.27;;;22.40;83.20;;;;;;5081171;28;20530;-63
2023/05/13 10:14:52;;;;;;;9.03;4.20;;;22.30;83.70;;;;;;5086547;27;20587;-63
2023/05/13 10:17:22;;;;;;;3.87;3.40;;;22.20;83.40;;;;;;5080858;28;20441;-62
2023/05/13 10:19:50;;;;;;;4.50;3.47;;;22.30;83.00;;;;;;5075987;28;20480;-63
2023/05/13 10:22:26;;;;;;;3.57;3.00;;;22.20;82.70;;;;;;5099878;27;20899;-63
2023/05/13 10:24:53;;;;;;;4.10;3.80;;;22.20;82.80;;;;;;5074895;28;20459;-63
2023/05/13 10:27:22;;;;;;;4.20;3.43;;;22.10;84.50;;;;;;5075154;28;20467;-63
2023/05/13 10:29:54;;;;;;;3.87;3.50;;;22.20;83.50;;;;;;5076412;28;20559;-63
2023/05/13 10:32:24;;;;;;;4.03;3.40;;;22.20;82.70;;;;;;5093011;27;20449;-62
2023/05/13 10:34:54;;;;;;;5.23;3.83;;;22.30;82.10;;;;;;5081353;28;20961;-63
2023/05/13 10:37:39;;;;;;;3.93;3.43;;;22.40;83.90;;;;;;5076672;28;20586;-63
2023/05/13 10:40:22;;;;;;;4.70;4.20;;;22.50;82.80;;;;;;5094523;27;20454;-63
2023/05/13 10:42:59;;;;;;;4.83;4.47;;;22.60;85.70;;;;;;5075821;28;20554;-62
2023/05/13 10:45:27;;;;;;;4.13;3.43;;;22.80;80.90;;;;;;5084620;28;20451;-62
2023/05/13 10:47:56;;;;;;;7.40;4.37;;;22.80;81.30;;;;;;5084230;28;20489;-63
2023/05/13 10:50:26;;;;;;;8.77;4.10;;;22.60;79.40;;;;;;5067055;28;20456;-63
2023/05/13 10:52:56;;;;;;;4.60;4.20;;;22.60;82.20;;;;;;5106799;27;20450;-62
2023/05/13 10:55:23;;;;;;;7.40;3.77;;;22.60;82.30;;;;;;5085109;28;20476;-63
2023/05/13 10:58:10;;;;;;;5.10;3.97;;;22.60;78.40;;;;;;5084050;28;20441;-63
2023/05/13 11:00:38;;;;;;;5.30;4.53;;;22.90;83.00;;;;;;5076510;28;20531;-62
2023/05/13 11:03:27;;;;;;;6.13;3.43;;;23.00;81.70;;;;;;5075838;28;20465;-63
2023/05/13 11:06:03;;;;;;;6.20;4.33;;;23.10;82.40;;;;;;5085746;28;20529;-63
2023/05/13 11:08:37;;;;;;;4.03;3.60;;;23.20;81.60;;;;;;5092416;28;20481;-63
2023/05/13 11:11:17;;;;;;;4.83;3.70;;;23.00;81.20;;;;;;5075646;28;20511;-64
2023/05/13 11:13:44;;;;;;;16.23;3.83;;;23.20;81.90;;;;;;5081314;28;20478;-63
2023/05/13 11:16:13;;;;;;;4.00;3.67;;;23.20;81.90;;;;;;5087527;28;20474;-62
2023/05/13 11:18:41;;;;;;;4.40;4.10;;;23.10;80.10;;;;;;5072740;28;20461;-63
2023/05/13 11:21:08;;;;;;;4.10;3.80;;;22.90;81.00;;;;;;5078154;28;20548;-63
2023/05/13 11:23:51;;;;;;;4.60;4.00;;;22.80;82.60;;;;;;5077654;28;20461;-63
2023/05/13 11:26:20;;;;;;;5.30;4.23;;;22.60;83.50;;;;;;5093944;28;20452;-63
2023/05/13 11:28:58;;;;;;;6.23;4.70;;;22.70;83.00;;;;;;5082683;28;20583;-63
2023/05/13 11:31:28;;;;;;;5.47;4.53;;;22.80;82.80;;;;;;5063555;28;20442;-62
2023/05/13 11:34:10;;;;;;;5.23;3.50;;;22.80;82.50;;;;;;5075565;28;20477;-63
2023/05/13 11:36:39;;;;;;;4.63;4.20;;;22.50;79.70;;;;;;5086748;28;20453;-63
2023/05/13 11:39:11;;;;;;;4.17;3.87;;;22.50;80.00;;;;;;5071916;28;20462;-63
2023/05/13 11:41:40;;;;;;;4.73;4.33;;;22.60;83.30;;;;;;5077346;28;20449;-63
2023/05/13 11:44:07;;;;;;;4.97;4.47;;;22.80;85.20;;;;;;5084013;27;20768;-63
2023/05/13 11:46:35;;;;;;;5.80;4.40;;;23.00;88.30;;;;;;5077349;28;20486;-63
2023/05/13 11:49:02;;;;;;;6.20;4.60;;;23.50;81.60;;;;;;5083094;28;21311;-63
2023/05/13 11:51:31;;;;;;;5.20;4.80;;;23.60;82.00;;;;;;5082623;28;20473;-63
2023/05/13 11:54:03;;;;;;;5.43;4.53;;;23.70;81.00;;;;;;5072425;28;21027;-63
2023/05/13 11:56:30;;;;;;;6.03;5.10;;;23.70;78.30;;;;;;5064586;28;20861;-63
2023/05/13 11:59:13;;;;;;;4.23;3.83;;;23.70;78.00;;;;;;5078909;28;21003;-63
2023/05/13 12:01:40;;;;;;;9.00;4.57;;;23.60;77.70;;;;;;5068380;28;20449;-64
2023/05/13 12:04:07;;;;;;;9.20;3.57;;;23.70;79.80;;;;;;5078644;28;20485;-62
2023/05/13 12:06:44;;;;;;;4.50;4.10;;;23.40;77.10;;;;;;5084193;28;21162;-63
2023/05/13 12:09:12;;;;;;;5.43;4.40;;;23.70;81.50;;;;;;5088204;28;20473;-63
2023/05/13 12:11:39;;;;;;;4.90;4.07;;;24.10;80.70;;;;;;5074314;28;20509;-63
2023/05/13 12:14:06;;;;;;;7.70;4.63;;;;;;;;;;5077189;28;20468;-63
2023/05/13 12:16:33;;;;;;;11.03;5.97;;;;;;;;;;5070044;28;20538;-63
2023/05/13 12:19:03;;;;;;;4.70;4.30;;;24.50;79.20;;;;;;5092843;27;20486;-63
2023/05/13 12:21:33;;;;;;;4.30;3.90;;;24.40;79.90;;;;;;5075906;28;20462;-63
2023/05/13 12:24:02;;;;;;;8.10;4.40;;;24.10;78.10;;;;;;5077128;28;20460;-63
2023/05/13 12:26:30;;;;;;;4.90;3.67;;;24.00;78.00;;;;;;5081489;28;20533;-63
2023/05/13 12:28:58;;;;;;;6.80;4.60;;;23.40;76.10;;;;;;5080252;28;20448;-63
2023/05/13 12:31:26;;;;;;;4.37;4.00;;;23.40;76.60;;;;;;5095074;28;21512;-63
2023/05/13 12:33:53;;;;;;;4.73;4.40;;;23.10;79.50;;;;;;5078321;28;20498;-63
2023/05/13 12:36:24;;;;;;;4.67;4.27;;;22.90;79.40;;;;;;5080944;28;20482;-63
2023/05/13 12:38:55;;;;;;;4.63;4.23;;;22.80;79.80;;;;;;5080552;28;20474;-62
2023/05/13 12:41:24;;;;;;;4.83;4.17;;;22.70;81.20;;;;;;5094653;28;20544;-63
2023/05/13 12:43:56;;;;;;;5.23;4.50;;;22.90;82.60;;;;;;5082693;28;20497;-63
2023/05/13 12:46:23;;;;;;;4.03;3.77;;;22.90;83.30;;;;;;5086738;28;20564;-63
2023/05/13 12:48:53;;;;;;;5.20;4.53;;;23.20;82.70;;;;;;5079303;28;21019;-63
2023/05/13 12:51:20;;;;;;;4.40;4.00;;;23.20;80.40;;;;;;5092306;27;20542;-64